Rhonda Lamulle — WDC8441 — position and weather

sailwx.info

Track history (hours):
 
Tides and Currents Weather Stations Pressure Air Temp Water Temp Dewpoint Dewpoint Depression Visibility Wind Speed Wind Dir Waves Ship Positions

Rhonda Lamulle

Owner: Florida Marine, LLC, Mandeville, LA. More information available from US FCC via Universal Licensing System and Coast Guard Vessel Documentation Center.

Last reported at 2017-Oct-10 15:15 UTC. Time now 2017-Oct-19 03:59 UTC.
Position N 30°24' W 086°52'.
Warning: this ship's position is 8 days out of date.

Length 13 m; draft 3 m.

Type: Towing. MMSI: 367087104.

Date/timePositionNaut miles runAvg speedWind from/ knotsBaromVisibWave heightAir tempDewpointWater temp
2017-Oct-10 15:15N 30°24' W 086°52'2 6.3
2017-Oct-10 15:00N 30°24' W 086°50'9 0.4
2017-Oct-09 18:58N 30°24' W 086°39'3 6.0
2017-Oct-09 18:29N 30°24' W 086°36'4 6.5
2017-Oct-09 17:55N 30°25' W 086°32'3 6.8
2017-Oct-09 17:30N 30°26' W 086°29'3 6.0
2017-Oct-09 17:00N 30°29' W 086°29'0 0.4
2017-Oct-09 16:30N 30°29' W 086°29'1 1.1
2017-Oct-09 16:00N 30°29' W 086°29'0 0.0
2017-Oct-09 15:30N 30°29' W 086°29'0 0.0
2017-Oct-09 15:00N 30°29' W 086°29'0 0.0
2017-Oct-09 14:30N 30°29' W 086°29'0 0.0
2017-Oct-09 14:00N 30°29' W 086°29'0 0.0
2017-Oct-09 13:30N 30°29' W 086°29'0 0.0
2017-Oct-09 13:00N 30°29' W 086°29'0 0.0
2017-Oct-09 12:30N 30°29' W 086°29'0 0.0
2017-Oct-09 12:00N 30°29' W 086°29'0 0.0
2017-Oct-09 11:30N 30°29' W 086°29'0 0.0
2017-Oct-09 11:00N 30°29' W 086°29'0 0.0
2017-Oct-09 10:30N 30°29' W 086°29'0 0.0
2017-Oct-09 10:00N 30°29' W 086°29'0 0.0
2017-Oct-09 09:31N 30°29' W 086°29'0 0.0
2017-Oct-09 09:00N 30°29' W 086°29'0 0.0
2017-Oct-09 08:30N 30°29' W 086°29'0 0.0
2017-Oct-09 08:00N 30°29' W 086°29'0 0.0
2017-Oct-09 07:30N 30°29' W 086°29'0 0.0
2017-Oct-09 07:00N 30°29' W 086°29'0 0.0
2017-Oct-09 06:30N 30°29' W 086°29'0 0.0
2017-Oct-09 06:00N 30°29' W 086°29'0 0.0
2017-Oct-09 05:30N 30°29' W 086°29'0 0.0
2017-Oct-09 05:00N 30°29' W 086°29'0 0.0
2017-Oct-09 04:30N 30°29' W 086°29'0 0.0
2017-Oct-09 04:00N 30°29' W 086°29'0 0.0
2017-Oct-09 03:30N 30°29' W 086°29'0 0.0
2017-Oct-09 03:00N 30°29' W 086°29'0 0.0
2017-Oct-09 02:30N 30°29' W 086°29'0 0.0
2017-Oct-09 02:00N 30°29' W 086°29'0 0.0
2017-Oct-09 01:30N 30°29' W 086°29'0 0.0
2017-Oct-09 01:00N 30°29' W 086°29'0 0.0
2017-Oct-09 00:30N 30°29' W 086°29'0 0.0
2017-Oct-09 00:00N 30°29' W 086°29'0 0.0
2017-Oct-08 23:30N 30°29' W 086°29'0 0.0
2017-Oct-08 23:00N 30°29' W 086°29'0 0.0
2017-Oct-08 22:30N 30°29' W 086°29'0 0.0
2017-Oct-08 22:00N 30°29' W 086°29'0 0.0
2017-Oct-08 21:30N 30°29' W 086°29'0 0.0
2017-Oct-08 21:00N 30°29' W 086°29'0 0.0
2017-Oct-08 20:30N 30°29' W 086°29'0 0.0
2017-Oct-08 20:00N 30°29' W 086°29'0 0.0
2017-Oct-08 19:30N 30°29' W 086°29'0 0.0
2017-Oct-08 19:00N 30°29' W 086°29'0 0.0
2017-Oct-08 18:31N 30°29' W 086°29'0 0.0
2017-Oct-08 18:00N 30°29' W 086°29'0 0.0
2017-Oct-08 17:30N 30°29' W 086°29'0 0.0
2017-Oct-08 17:00N 30°29' W 086°29'0 0.0
2017-Oct-08 16:30N 30°29' W 086°29'0 0.0
2017-Oct-08 16:00N 30°29' W 086°29'0 0.0
2017-Oct-08 15:30N 30°29' W 086°29'0 0.0
2017-Oct-08 15:00N 30°29' W 086°29'0 0.0
2017-Oct-08 14:30N 30°29' W 086°29'0 0.0
2017-Oct-08 14:00N 30°29' W 086°29'0 0.0
2017-Oct-08 13:30N 30°29' W 086°29'0 0.0
2017-Oct-08 13:00N 30°29' W 086°29'0 0.0
2017-Oct-08 12:30N 30°29' W 086°29'0 0.0
2017-Oct-08 12:00N 30°29' W 086°29'0 0.0
2017-Oct-08 11:30N 30°29' W 086°29'0 0.0
2017-Oct-08 11:00N 30°29' W 086°29'0 0.0
2017-Oct-08 10:30N 30°29' W 086°29'0 0.0
2017-Oct-08 10:00N 30°29' W 086°29'0 0.0
2017-Oct-08 09:30N 30°29' W 086°29'0 0.0
2017-Oct-08 09:00N 30°29' W 086°29'0 0.0
2017-Oct-08 08:30N 30°29' W 086°29'0 0.0
2017-Oct-08 08:00N 30°29' W 086°29'0 0.0
2017-Oct-08 07:30N 30°29' W 086°29'0 0.0
2017-Oct-08 07:00N 30°29' W 086°29'0 0.0
2017-Oct-08 06:30N 30°29' W 086°29'0 0.0
2017-Oct-08 06:00N 30°29' W 086°29'0 0.0
2017-Oct-08 05:30N 30°29' W 086°29'0 0.0
2017-Oct-08 05:00N 30°29' W 086°29'0 0.0
2017-Oct-08 04:30N 30°29' W 086°29'0 0.0
2017-Oct-08 04:00N 30°29' W 086°29'0 0.0
2017-Oct-08 03:30N 30°29' W 086°29'0 0.0
2017-Oct-08 03:00N 30°29' W 086°29'0 0.0
2017-Oct-08 02:30N 30°29' W 086°29'0 0.0
2017-Oct-08 02:00N 30°29' W 086°29'0 0.0
2017-Oct-08 01:30N 30°29' W 086°29'0 0.0
2017-Oct-08 01:00N 30°29' W 086°29'0 0.0
2017-Oct-08 00:30N 30°29' W 086°29'0 0.0
2017-Oct-08 00:00N 30°29' W 086°29'0 0.0
2017-Oct-07 23:30N 30°29' W 086°29'0 0.0
2017-Oct-07 23:00N 30°29' W 086°29'0 0.0
2017-Oct-07 22:30N 30°29' W 086°29'0 0.0
2017-Oct-07 22:00N 30°29' W 086°29'0 0.0
2017-Oct-07 21:30N 30°29' W 086°29'0 0.0
2017-Oct-07 21:00N 30°29' W 086°29'0 0.0
2017-Oct-07 20:30N 30°29' W 086°29'0 0.0
2017-Oct-07 20:00N 30°29' W 086°29'0 0.0
2017-Oct-07 19:30N 30°29' W 086°29'0 0.0
2017-Oct-07 19:00N 30°29' W 086°29'0 0.0
2017-Oct-07 18:30N 30°29' W 086°29'0 0.0
2017-Oct-07 18:00N 30°29' W 086°29'0 0.0
2017-Oct-07 17:30N 30°29' W 086°29'0 0.0
2017-Oct-07 17:00N 30°29' W 086°29'0 0.0
2017-Oct-07 16:30N 30°29' W 086°29'0 0.0
2017-Oct-07 16:00N 30°29' W 086°29'0 0.0
2017-Oct-07 15:30N 30°29' W 086°29'0 0.0
2017-Oct-07 15:00N 30°29' W 086°29'0 0.0
2017-Oct-07 14:31N 30°29' W 086°29'0 0.0
2017-Oct-07 14:00N 30°29' W 086°29'0 0.0
2017-Oct-07 13:30N 30°29' W 086°29'0 0.0
2017-Oct-07 13:00N 30°29' W 086°29'0 0.0
2017-Oct-07 12:30N 30°29' W 086°29'0 0.0
2017-Oct-07 12:00N 30°29' W 086°29'0 0.0
2017-Oct-07 11:30N 30°29' W 086°29'0 0.0
2017-Oct-07 11:00N 30°29' W 086°29'0 0.0
2017-Oct-07 10:30N 30°29' W 086°29'0 0.0
2017-Oct-07 10:00N 30°29' W 086°29'0 0.0
2017-Oct-07 09:30N 30°29' W 086°29'0 0.0
2017-Oct-07 09:01N 30°29' W 086°29'0 0.0
2017-Oct-07 08:30N 30°29' W 086°29'0 0.0
2017-Oct-07 08:00N 30°29' W 086°29'0 0.0
2017-Oct-07 07:30N 30°29' W 086°29'0 0.0
2017-Oct-07 07:00N 30°29' W 086°29'0 0.0
2017-Oct-07 06:30N 30°29' W 086°29'0 0.0
2017-Oct-07 06:00N 30°29' W 086°29'0 0.0
2017-Oct-07 05:30N 30°29' W 086°29'0 0.0
2017-Oct-07 05:00N 30°29' W 086°29'0 0.0
2017-Oct-07 04:30N 30°29' W 086°29'0 0.0
2017-Oct-07 04:00N 30°29' W 086°29'0 0.0
2017-Oct-07 03:30N 30°29' W 086°29'0 0.0
2017-Oct-07 03:01N 30°29' W 086°29'0 0.0
2017-Oct-07 02:30N 30°29' W 086°29'0 0.0
2017-Oct-07 02:00N 30°29' W 086°29'0 0.0
2017-Oct-07 01:30N 30°29' W 086°29'0 0.0
2017-Oct-07 01:00N 30°29' W 086°29'0 0.0
2017-Oct-07 00:30N 30°29' W 086°29'0 0.0
2017-Oct-07 00:00N 30°29' W 086°29'0 0.0
2017-Oct-06 23:30N 30°29' W 086°29'0 0.0
2017-Oct-06 23:00N 30°29' W 086°29'0 0.0
2017-Oct-06 22:30N 30°29' W 086°29'0 0.0
2017-Oct-06 22:00N 30°29' W 086°29'0 0.0
2017-Oct-06 21:30N 30°29' W 086°29'0 0.0
2017-Oct-06 21:00N 30°29' W 086°29'0 0.0
2017-Oct-06 20:30N 30°29' W 086°29'0 0.0
2017-Oct-06 20:00N 30°29' W 086°29'0 0.0
2017-Oct-06 19:30N 30°29' W 086°29'0 0.0
2017-Oct-06 19:00N 30°29' W 086°29'0 0.0
2017-Oct-06 18:30N 30°29' W 086°29'0 0.0
2017-Oct-06 18:00N 30°29' W 086°29'0 0.0
2017-Oct-06 17:30N 30°29' W 086°29'0 0.0
2017-Oct-06 17:00N 30°29' W 086°29'0 0.0
2017-Oct-06 16:30N 30°29' W 086°29'0 0.0
2017-Oct-06 16:00N 30°29' W 086°29'0 0.0
2017-Oct-06 15:30N 30°29' W 086°29'  
2017-Oct-03 21:24N 30°24' W 086°34'3 6.9
2017-Oct-03 20:54N 30°25' W 086°30'3 7.1
2017-Oct-03 20:30N 30°28' W 086°28'2 3.1
2017-Oct-03 20:00N 30°29' W 086°29'0 0.5
2017-Oct-03 19:30N 30°29' W 086°29'0 0.0
2017-Oct-03 19:00N 30°29' W 086°29'0 0.0
2017-Oct-03 18:30N 30°29' W 086°29'0 0.0
2017-Oct-03 18:00N 30°29' W 086°29'0 0.0
2017-Oct-03 17:30N 30°29' W 086°29'0 0.0
2017-Oct-03 17:00N 30°29' W 086°29'0 0.0
2017-Oct-03 16:30N 30°29' W 086°29'0 0.0
2017-Oct-03 16:00N 30°29' W 086°29'0 0.0
2017-Oct-03 15:30N 30°29' W 086°29'0 0.0
2017-Oct-03 15:00N 30°29' W 086°29'0 0.0
2017-Oct-03 14:00N 30°29' W 086°29'0 0.0
2017-Oct-03 13:30N 30°29' W 086°29'0 0.0
2017-Oct-03 13:00N 30°29' W 086°29'0 0.0
2017-Oct-03 12:30N 30°29' W 086°29'0 0.1
2017-Oct-03 12:00N 30°29' W 086°29'1 1.8
2017-Oct-03 11:30N 30°28' W 086°28'3 5.6
2017-Oct-03 11:00N 30°26' W 086°26'3 6.3
2017-Oct-03 10:30N 30°26' W 086°23'3 6.6
2017-Oct-03 10:00N 30°26' W 086°19'  
Track history (hours):
 
Tides and Currents Weather Stations Pressure Air Temp Water Temp Dewpoint Dewpoint Depression Visibility Wind Speed Wind Dir Waves Ship Positions

Rhonda Lamulle

Owner: Florida Marine, LLC, Mandeville, LA. More information available from US FCC via Universal Licensing System and Coast Guard Vessel Documentation Center.

Last reported at 2017-Oct-10 15:15 UTC. Time now 2017-Oct-19 03:59 UTC.
Position N 30°24' W 086°52'.
Warning: this ship's position is 8 days out of date.

Length 13 m; draft 3 m.

Type: Towing. MMSI: 367087104.

Date/timePositionNaut miles runAvg speedWind from/ knotsBaromVisibWave heightAir tempDewpointWater temp
2017-Oct-10 15:15N 30°24' W 086°52'2 6.3
2017-Oct-10 15:00N 30°24' W 086°50'9 0.4
2017-Oct-09 18:58N 30°24' W 086°39'3 6.0
2017-Oct-09 18:29N 30°24' W 086°36'4 6.5
2017-Oct-09 17:55N 30°25' W 086°32'3 6.8
2017-Oct-09 17:30N 30°26' W 086°29'3 6.0
2017-Oct-09 17:00N 30°29' W 086°29'0 0.4
2017-Oct-09 16:30N 30°29' W 086°29'1 1.1
2017-Oct-09 16:00N 30°29' W 086°29'0 0.0
2017-Oct-09 15:30N 30°29' W 086°29'0 0.0
2017-Oct-09 15:00N 30°29' W 086°29'0 0.0
2017-Oct-09 14:30N 30°29' W 086°29'0 0.0
2017-Oct-09 14:00N 30°29' W 086°29'0 0.0
2017-Oct-09 13:30N 30°29' W 086°29'0 0.0
2017-Oct-09 13:00N 30°29' W 086°29'0 0.0
2017-Oct-09 12:30N 30°29' W 086°29'0 0.0
2017-Oct-09 12:00N 30°29' W 086°29'0 0.0
2017-Oct-09 11:30N 30°29' W 086°29'0 0.0
2017-Oct-09 11:00N 30°29' W 086°29'0 0.0
2017-Oct-09 10:30N 30°29' W 086°29'0 0.0
2017-Oct-09 10:00N 30°29' W 086°29'0 0.0
2017-Oct-09 09:31N 30°29' W 086°29'0 0.0
2017-Oct-09 09:00N 30°29' W 086°29'0 0.0
2017-Oct-09 08:30N 30°29' W 086°29'0 0.0
2017-Oct-09 08:00N 30°29' W 086°29'0 0.0
2017-Oct-09 07:30N 30°29' W 086°29'0 0.0
2017-Oct-09 07:00N 30°29' W 086°29'0 0.0
2017-Oct-09 06:30N 30°29' W 086°29'0 0.0
2017-Oct-09 06:00N 30°29' W 086°29'0 0.0
2017-Oct-09 05:30N 30°29' W 086°29'0 0.0
2017-Oct-09 05:00N 30°29' W 086°29'0 0.0
2017-Oct-09 04:30N 30°29' W 086°29'0 0.0
2017-Oct-09 04:00N 30°29' W 086°29'0 0.0
2017-Oct-09 03:30N 30°29' W 086°29'0 0.0
2017-Oct-09 03:00N 30°29' W 086°29'0 0.0
2017-Oct-09 02:30N 30°29' W 086°29'0 0.0
2017-Oct-09 02:00N 30°29' W 086°29'0 0.0
2017-Oct-09 01:30N 30°29' W 086°29'0 0.0
2017-Oct-09 01:00N 30°29' W 086°29'0 0.0
2017-Oct-09 00:30N 30°29' W 086°29'0 0.0
2017-Oct-09 00:00N 30°29' W 086°29'0 0.0
2017-Oct-08 23:30N 30°29' W 086°29'0 0.0
2017-Oct-08 23:00N 30°29' W 086°29'0 0.0
2017-Oct-08 22:30N 30°29' W 086°29'0 0.0
2017-Oct-08 22:00N 30°29' W 086°29'0 0.0
2017-Oct-08 21:30N 30°29' W 086°29'0 0.0
2017-Oct-08 21:00N 30°29' W 086°29'0 0.0
2017-Oct-08 20:30N 30°29' W 086°29'0 0.0
2017-Oct-08 20:00N 30°29' W 086°29'0 0.0
2017-Oct-08 19:30N 30°29' W 086°29'0 0.0
2017-Oct-08 19:00N 30°29' W 086°29'0 0.0
2017-Oct-08 18:31N 30°29' W 086°29'0 0.0
2017-Oct-08 18:00N 30°29' W 086°29'0 0.0
2017-Oct-08 17:30N 30°29' W 086°29'0 0.0
2017-Oct-08 17:00N 30°29' W 086°29'0 0.0
2017-Oct-08 16:30N 30°29' W 086°29'0 0.0
2017-Oct-08 16:00N 30°29' W 086°29'0 0.0
2017-Oct-08 15:30N 30°29' W 086°29'0 0.0
2017-Oct-08 15:00N 30°29' W 086°29'0 0.0
2017-Oct-08 14:30N 30°29' W 086°29'0 0.0
2017-Oct-08 14:00N 30°29' W 086°29'0 0.0
2017-Oct-08 13:30N 30°29' W 086°29'0 0.0
2017-Oct-08 13:00N 30°29' W 086°29'0 0.0
2017-Oct-08 12:30N 30°29' W 086°29'0 0.0
2017-Oct-08 12:00N 30°29' W 086°29'0 0.0
2017-Oct-08 11:30N 30°29' W 086°29'0 0.0
2017-Oct-08 11:00N 30°29' W 086°29'0 0.0
2017-Oct-08 10:30N 30°29' W 086°29'0 0.0
2017-Oct-08 10:00N 30°29' W 086°29'0 0.0
2017-Oct-08 09:30N 30°29' W 086°29'0 0.0
2017-Oct-08 09:00N 30°29' W 086°29'0 0.0
2017-Oct-08 08:30N 30°29' W 086°29'0 0.0
2017-Oct-08 08:00N 30°29' W 086°29'0 0.0
2017-Oct-08 07:30N 30°29' W 086°29'0 0.0
2017-Oct-08 07:00N 30°29' W 086°29'0 0.0
2017-Oct-08 06:30N 30°29' W 086°29'0 0.0
2017-Oct-08 06:00N 30°29' W 086°29'0 0.0
2017-Oct-08 05:30N 30°29' W 086°29'0 0.0
2017-Oct-08 05:00N 30°29' W 086°29'0 0.0
2017-Oct-08 04:30N 30°29' W 086°29'0 0.0
2017-Oct-08 04:00N 30°29' W 086°29'0 0.0
2017-Oct-08 03:30N 30°29' W 086°29'0 0.0
2017-Oct-08 03:00N 30°29' W 086°29'0 0.0
2017-Oct-08 02:30N 30°29' W 086°29'0 0.0
2017-Oct-08 02:00N 30°29' W 086°29'0 0.0
2017-Oct-08 01:30N 30°29' W 086°29'0 0.0
2017-Oct-08 01:00N 30°29' W 086°29'0 0.0
2017-Oct-08 00:30N 30°29' W 086°29'0 0.0
2017-Oct-08 00:00N 30°29' W 086°29'0 0.0
2017-Oct-07 23:30N 30°29' W 086°29'0 0.0
2017-Oct-07 23:00N 30°29' W 086°29'0 0.0
2017-Oct-07 22:30N 30°29' W 086°29'0 0.0
2017-Oct-07 22:00N 30°29' W 086°29'0 0.0
2017-Oct-07 21:30N 30°29' W 086°29'0 0.0
2017-Oct-07 21:00N 30°29' W 086°29'0 0.0
2017-Oct-07 20:30N 30°29' W 086°29'0 0.0
2017-Oct-07 20:00N 30°29' W 086°29'0 0.0
2017-Oct-07 19:30N 30°29' W 086°29'0 0.0
2017-Oct-07 19:00N 30°29' W 086°29'0 0.0
2017-Oct-07 18:30N 30°29' W 086°29'0 0.0
2017-Oct-07 18:00N 30°29' W 086°29'0 0.0
2017-Oct-07 17:30N 30°29' W 086°29'0 0.0
2017-Oct-07 17:00N 30°29' W 086°29'0 0.0
2017-Oct-07 16:30N 30°29' W 086°29'0 0.0
2017-Oct-07 16:00N 30°29' W 086°29'0 0.0
2017-Oct-07 15:30N 30°29' W 086°29'0 0.0
2017-Oct-07 15:00N 30°29' W 086°29'0 0.0
2017-Oct-07 14:31N 30°29' W 086°29'0 0.0
2017-Oct-07 14:00N 30°29' W 086°29'0 0.0
2017-Oct-07 13:30N 30°29' W 086°29'0 0.0
2017-Oct-07 13:00N 30°29' W 086°29'0 0.0
2017-Oct-07 12:30N 30°29' W 086°29'0 0.0
2017-Oct-07 12:00N 30°29' W 086°29'0 0.0
2017-Oct-07 11:30N 30°29' W 086°29'0 0.0
2017-Oct-07 11:00N 30°29' W 086°29'0 0.0
2017-Oct-07 10:30N 30°29' W 086°29'0 0.0
2017-Oct-07 10:00N 30°29' W 086°29'0 0.0
2017-Oct-07 09:30N 30°29' W 086°29'0 0.0
2017-Oct-07 09:01N 30°29' W 086°29'0 0.0
2017-Oct-07 08:30N 30°29' W 086°29'0 0.0
2017-Oct-07 08:00N 30°29' W 086°29'0 0.0
2017-Oct-07 07:30N 30°29' W 086°29'0 0.0
2017-Oct-07 07:00N 30°29' W 086°29'0 0.0
2017-Oct-07 06:30N 30°29' W 086°29'0 0.0
2017-Oct-07 06:00N 30°29' W 086°29'0 0.0
2017-Oct-07 05:30N 30°29' W 086°29'0 0.0
2017-Oct-07 05:00N 30°29' W 086°29'0 0.0
2017-Oct-07 04:30N 30°29' W 086°29'0 0.0
2017-Oct-07 04:00N 30°29' W 086°29'0 0.0
2017-Oct-07 03:30N 30°29' W 086°29'0 0.0
2017-Oct-07 03:01N 30°29' W 086°29'0 0.0
2017-Oct-07 02:30N 30°29' W 086°29'0 0.0
2017-Oct-07 02:00N 30°29' W 086°29'0 0.0
2017-Oct-07 01:30N 30°29' W 086°29'0 0.0
2017-Oct-07 01:00N 30°29' W 086°29'0 0.0
2017-Oct-07 00:30N 30°29' W 086°29'0 0.0
2017-Oct-07 00:00N 30°29' W 086°29'0 0.0
2017-Oct-06 23:30N 30°29' W 086°29'0 0.0
2017-Oct-06 23:00N 30°29' W 086°29'0 0.0
2017-Oct-06 22:30N 30°29' W 086°29'0 0.0
2017-Oct-06 22:00N 30°29' W 086°29'0 0.0
2017-Oct-06 21:30N 30°29' W 086°29'0 0.0
2017-Oct-06 21:00N 30°29' W 086°29'0 0.0
2017-Oct-06 20:30N 30°29' W 086°29'0 0.0
2017-Oct-06 20:00N 30°29' W 086°29'0 0.0
2017-Oct-06 19:30N 30°29' W 086°29'0 0.0
2017-Oct-06 19:00N 30°29' W 086°29'0 0.0
2017-Oct-06 18:30N 30°29' W 086°29'0 0.0
2017-Oct-06 18:00N 30°29' W 086°29'0 0.0
2017-Oct-06 17:30N 30°29' W 086°29'0 0.0
2017-Oct-06 17:00N 30°29' W 086°29'0 0.0
2017-Oct-06 16:30N 30°29' W 086°29'0 0.0
2017-Oct-06 16:00N 30°29' W 086°29'0 0.0
2017-Oct-06 15:30N 30°29' W 086°29'  
2017-Oct-03 21:24N 30°24' W 086°34'3 6.9
2017-Oct-03 20:54N 30°25' W 086°30'3 7.1
2017-Oct-03 20:30N 30°28' W 086°28'2 3.1
2017-Oct-03 20:00N 30°29' W 086°29'0 0.5
2017-Oct-03 19:30N 30°29' W 086°29'0 0.0
2017-Oct-03 19:00N 30°29' W 086°29'0 0.0
2017-Oct-03 18:30N 30°29' W 086°29'0 0.0
2017-Oct-03 18:00N 30°29' W 086°29'0 0.0
2017-Oct-03 17:30N 30°29' W 086°29'0 0.0
2017-Oct-03 17:00N 30°29' W 086°29'0 0.0
2017-Oct-03 16:30N 30°29' W 086°29'0 0.0
2017-Oct-03 16:00N 30°29' W 086°29'0 0.0
2017-Oct-03 15:30N 30°29' W 086°29'0 0.0
2017-Oct-03 15:00N 30°29' W 086°29'0 0.0
2017-Oct-03 14:00N 30°29' W 086°29'0 0.0
2017-Oct-03 13:30N 30°29' W 086°29'0 0.0
2017-Oct-03 13:00N 30°29' W 086°29'0 0.0
2017-Oct-03 12:30N 30°29' W 086°29'0 0.1
2017-Oct-03 12:00N 30°29' W 086°29'1 1.8
2017-Oct-03 11:30N 30°28' W 086°28'3 5.6
2017-Oct-03 11:00N 30°26' W 086°26'3 6.3
2017-Oct-03 10:30N 30°26' W 086°23'3 6.6
2017-Oct-03 10:00N 30°26' W 086°19'  

Dump ship's entire track history